sensor_id;sensor_type;location;lat;lon;timestamp;pressure;altitude;pressure_sealevel;temperature;humidity
47811;BME280;33575;52.600;7.318;2023-08-06T00:02:06;100439.34;;;16.17;95.43
47811;BME280;33575;52.600;7.318;2023-08-06T00:04:37;100435.45;;;16.17;95.71
47811;BME280;33575;52.600;7.318;2023-08-06T00:07:07;100434.30;;;16.16;95.60
47811;BME280;33575;52.600;7.318;2023-08-06T00:09:38;100429.12;;;16.13;95.73
47811;BME280;33575;52.600;7.318;2023-08-06T00:12:08;100426.82;;;16.12;95.66
47811;BME280;33575;52.600;7.318;2023-08-06T00:14:38;100425.81;;;16.10;95.65
47811;BME280;33575;52.600;7.318;2023-08-06T00:17:09;100423.60;;;16.08;95.92
47811;BME280;33575;52.600;7.318;2023-08-06T00:19:39;100417.80;;;16.08;95.95
47811;BME280;33575;52.600;7.318;2023-08-06T00:22:10;100414.01;;;16.09;95.89
47811;BME280;33575;52.600;7.318;2023-08-06T00:24:40;100412.87;;;16.10;95.95
47811;BME280;33575;52.600;7.318;2023-08-06T00:27:11;100408.08;;;16.14;95.82
47811;BME280;33575;52.600;7.318;2023-08-06T00:29:41;100404.49;;;16.13;95.71
47811;BME280;33575;52.600;7.318;2023-08-06T00:32:11;100404.18;;;16.14;95.56
47811;BME280;33575;52.600;7.318;2023-08-06T00:34:42;100399.28;;;16.13;95.39
47811;BME280;33575;52.600;7.318;2023-08-06T00:37:12;100404.20;;;16.12;95.42
47811;BME280;33575;52.600;7.318;2023-08-06T00:39:42;100404.66;;;16.07;95.35
47811;BME280;33575;52.600;7.318;2023-08-06T00:42:13;100403.16;;;16.07;95.23
47811;BME280;33575;52.600;7.318;2023-08-06T00:44:43;100404.33;;;16.07;95.12
47811;BME280;33575;52.600;7.318;2023-08-06T00:47:14;100403.07;;;16.07;95.00
47811;BME280;33575;52.600;7.318;2023-08-06T00:49:44;100401.57;;;16.03;95.05
47811;BME280;33575;52.600;7.318;2023-08-06T00:52:14;100398.38;;;16.00;94.97
47811;BME280;33575;52.600;7.318;2023-08-06T00:54:44;100398.55;;;15.96;95.10
47811;BME280;33575;52.600;7.318;2023-08-06T00:57:15;100395.61;;;15.94;95.08
47811;BME280;33575;52.600;7.318;2023-08-06T00:59:45;100390.70;;;15.93;95.04
47811;BME280;33575;52.600;7.318;2023-08-06T01:02:15;100391.16;;;15.89;95.10
47811;BME280;33575;52.600;7.318;2023-08-06T01:04:46;100394.99;;;15.85;95.27
47811;BME280;33575;52.600;7.318;2023-08-06T01:07:25;100396.29;;;15.81;95.45
47811;BME280;33575;52.600;7.318;2023-08-06T01:09:52;100391.76;;;15.81;95.35
47811;BME280;33575;52.600;7.318;2023-08-06T01:12:25;100391.52;;;15.79;95.23
47811;BME280;33575;52.600;7.318;2023-08-06T01:14:53;100390.76;;;15.76;95.41
47811;BME280;33575;52.600;7.318;2023-08-06T01:17:18;100386.16;;;15.78;95.53
47811;BME280;33575;52.600;7.318;2023-08-06T01:19:48;100381.63;;;15.78;95.40
47811;BME280;33575;52.600;7.318;2023-08-06T01:22:19;100376.95;;;15.77;95.39
47811;BME280;33575;52.600;7.318;2023-08-06T01:24:50;100381.11;;;15.79;95.31
47811;BME280;33575;52.600;7.318;2023-08-06T01:27:25;100378.90;;;15.77;95.24
47811;BME280;33575;52.600;7.318;2023-08-06T01:29:55;100382.96;;;15.74;95.34
47811;BME280;33575;52.600;7.318;2023-08-06T01:32:21;100382.19;;;15.74;95.21
47811;BME280;33575;52.600;7.318;2023-08-06T01:34:50;100379.10;;;15.73;95.22
47811;BME280;33575;52.600;7.318;2023-08-06T01:37:20;100378.24;;;15.73;95.33
47811;BME280;33575;52.600;7.318;2023-08-06T01:39:50;100373.39;;;15.72;95.56
47811;BME280;33575;52.600;7.318;2023-08-06T01:42:20;100367.23;;;15.72;95.52
47811;BME280;33575;52.600;7.318;2023-08-06T01:44:51;100364.63;;;15.72;95.49
47811;BME280;33575;52.600;7.318;2023-08-06T01:47:21;100361.10;;;15.71;95.79
47811;BME280;33575;52.600;7.318;2023-08-06T01:49:51;100360.09;;;15.69;95.86
47811;BME280;33575;52.600;7.318;2023-08-06T01:52:21;100361.43;;;15.66;96.00
47811;BME280;33575;52.600;7.318;2023-08-06T01:54:52;100362.29;;;15.64;96.08
47811;BME280;33575;52.600;7.318;2023-08-06T01:57:22;100365.12;;;15.66;96.19
47811;BME280;33575;52.600;7.318;2023-08-06T01:59:52;100363.34;;;15.69;96.03
47811;BME280;33575;52.600;7.318;2023-08-06T02:02:23;100360.98;;;15.71;95.95
47811;BME280;33575;52.600;7.318;2023-08-06T02:04:53;100359.38;;;15.72;96.04
47811;BME280;33575;52.600;7.318;2023-08-06T02:07:23;100352.16;;;15.75;95.93
47811;BME280;33575;52.600;7.318;2023-08-06T02:09:54;100351.72;;;15.78;95.77
47811;BME280;33575;52.600;7.318;2023-08-06T02:12:24;100346.99;;;15.79;96.02
47811;BME280;33575;52.600;7.318;2023-08-06T02:14:54;100342.87;;;15.75;95.97
47811;BME280;33575;52.600;7.318;2023-08-06T02:17:25;100338.68;;;15.74;96.02
47811;BME280;33575;52.600;7.318;2023-08-06T02:19:55;100337.09;;;15.72;96.07
47811;BME280;33575;52.600;7.318;2023-08-06T02:22:25;100330.15;;;15.70;95.89
47811;BME280;33575;52.600;7.318;2023-08-06T02:24:56;100327.99;;;15.66;96.08
47811;BME280;33575;52.600;7.318;2023-08-06T02:27:26;100320.95;;;15.64;96.27
47811;BME280;33575;52.600;7.318;2023-08-06T02:29:56;100319.09;;;15.63;96.63
47811;BME280;33575;52.600;7.318;2023-08-06T02:32:26;100314.74;;;15.65;96.70
47811;BME280;33575;52.600;7.318;2023-08-06T02:34:57;100309.53;;;15.67;96.98
47811;BME280;33575;52.600;7.318;2023-08-06T02:37:27;100310.57;;;15.67;96.75
47811;BME280;33575;52.600;7.318;2023-08-06T02:39:57;100309.78;;;15.68;96.80
47811;BME280;33575;52.600;7.318;2023-08-06T02:42:27;100301.95;;;15.70;96.89
47811;BME280;33575;52.600;7.318;2023-08-06T02:44:58;100298.61;;;15.70;96.96
47811;BME280;33575;52.600;7.318;2023-08-06T02:47:28;100288.33;;;15.63;97.51
47811;BME280;33575;52.600;7.318;2023-08-06T02:49:59;100279.33;;;15.50;97.94
47811;BME280;33575;52.600;7.318;2023-08-06T02:52:29;100273.12;;;15.44;97.93
47811;BME280;33575;52.600;7.318;2023-08-06T02:54:59;100277.27;;;15.41;97.91
47811;BME280;33575;52.600;7.318;2023-08-06T02:57:29;100287.06;;;15.42;97.41
47811;BME280;33575;52.600;7.318;2023-08-06T03:00:00;100284.97;;;15.40;97.38
47811;BME280;33575;52.600;7.318;2023-08-06T03:02:30;100285.26;;;15.37;97.67
47811;BME280;33575;52.600;7.318;2023-08-06T03:05:00;100288.86;;;15.38;97.28
47811;BME280;33575;52.600;7.318;2023-08-06T03:07:31;100292.90;;;15.36;97.25
47811;BME280;33575;52.600;7.318;2023-08-06T03:10:01;100295.92;;;15.39;97.13
47811;BME280;33575;52.600;7.318;2023-08-06T03:12:31;100291.64;;;15.41;97.11
47811;BME280;33575;52.600;7.318;2023-08-06T03:15:02;100287.73;;;15.41;96.89
47811;BME280;33575;52.600;7.318;2023-08-06T03:17:32;100291.61;;;15.44;96.44
47811;BME280;33575;52.600;7.318;2023-08-06T03:20:03;100290.95;;;15.46;96.39
47811;BME280;33575;52.600;7.318;2023-08-06T03:22:33;100291.53;;;15.48;96.23
47811;BME280;33575;52.600;7.318;2023-08-06T03:25:04;100291.22;;;15.50;96.15
47811;BME280;33575;52.600;7.318;2023-08-06T03:27:33;100291.27;;;15.50;96.17
47811;BME280;33575;52.600;7.318;2023-08-06T03:30:05;100291.54;;;15.51;95.97
47811;BME280;33575;52.600;7.318;2023-08-06T03:32:34;100293.69;;;15.53;95.77
47811;BME280;33575;52.600;7.318;2023-08-06T03:35:05;100290.57;;;15.51;96.30
47811;BME280;33575;52.600;7.318;2023-08-06T03:37:34;100290.33;;;15.50;96.33
47811;BME280;33575;52.600;7.318;2023-08-06T03:40:06;100290.99;;;15.52;96.49
47811;BME280;33575;52.600;7.318;2023-08-06T03:42:35;100286.55;;;15.55;96.15
47811;BME280;33575;52.600;7.318;2023-08-06T03:45:07;100282.38;;;15.50;96.62
47811;BME280;33575;52.600;7.318;2023-08-06T03:47:36;100277.16;;;15.41;97.26
47811;BME280;33575;52.600;7.318;2023-08-06T03:50:07;100277.23;;;15.37;97.08
47811;BME280;33575;52.600;7.318;2023-08-06T03:52:36;100273.94;;;15.35;97.08
47811;BME280;33575;52.600;7.318;2023-08-06T03:55:07;100271.57;;;15.34;97.12
47811;BME280;33575;52.600;7.318;2023-08-06T03:57:37;100268.38;;;15.36;96.82
47811;BME280;33575;52.600;7.318;2023-08-06T04:00:08;100270.29;;;15.39;96.32
47811;BME280;33575;52.600;7.318;2023-08-06T04:02:38;100268.83;;;15.38;95.97
47811;BME280;33575;52.600;7.318;2023-08-06T04:05:08;100270.37;;;15.36;95.79
47811;BME280;33575;52.600;7.318;2023-08-06T04:07:38;100270.63;;;15.30;95.92
47811;BME280;33575;52.600;7.318;2023-08-06T04:10:09;100270.66;;;15.29;95.85
47811;BME280;33575;52.600;7.318;2023-08-06T04:12:39;100269.76;;;15.27;95.84
47811;BME280;33575;52.600;7.318;2023-08-06T04:15:10;100270.80;;;15.28;95.82
47811;BME280;33575;52.600;7.318;2023-08-06T04:17:40;100267.16;;;15.28;95.89
47811;BME280;33575;52.600;7.318;2023-08-06T04:20:11;100266.76;;;15.31;95.80
47811;BME280;33575;52.600;7.318;2023-08-06T04:22:40;100270.90;;;15.32;95.74
47811;BME280;33575;52.600;7.318;2023-08-06T04:25:11;100269.71;;;15.31;95.85
47811;BME280;33575;52.600;7.318;2023-08-06T04:27:41;100273.75;;;15.32;95.83
47811;BME280;33575;52.600;7.318;2023-08-06T04:30:12;100275.22;;;15.32;96.18
47811;BME280;33575;52.600;7.318;2023-08-06T04:32:43;100275.34;;;15.35;96.16
47811;BME280;33575;52.600;7.318;2023-08-06T04:35:13;100269.60;;;15.32;96.49
47811;BME280;33575;52.600;7.318;2023-08-06T04:37:43;100269.30;;;15.28;96.68
47811;BME280;33575;52.600;7.318;2023-08-06T04:40:14;100268.05;;;15.21;97.25
47811;BME280;33575;52.600;7.318;2023-08-06T04:42:44;100266.25;;;15.13;97.69
47811;BME280;33575;52.600;7.318;2023-08-06T04:45:15;100263.26;;;15.06;97.85
47811;BME280;33575;52.600;7.318;2023-08-06T04:47:45;100262.42;;;15.04;98.11
47811;BME280;33575;52.600;7.318;2023-08-06T04:50:15;100262.86;;;15.01;98.18
47811;BME280;33575;52.600;7.318;2023-08-06T04:52:45;100268.45;;;14.99;98.65
47811;BME280;33575;52.600;7.318;2023-08-06T04:55:16;100270.84;;;14.98;98.76
47811;BME280;33575;52.600;7.318;2023-08-06T04:57:46;100266.62;;;14.96;98.92
47811;BME280;33575;52.600;7.318;2023-08-06T05:00:16;100265.76;;;14.98;99.08
47811;BME280;33575;52.600;7.318;2023-08-06T05:02:47;100265.76;;;15.01;99.12
47811;BME280;33575;52.600;7.318;2023-08-06T05:05:17;100271.70;;;15.08;99.04
47811;BME280;33575;52.600;7.318;2023-08-06T05:07:49;100276.67;;;15.12;99.00
47811;BME280;33575;52.600;7.318;2023-08-06T05:10:18;100279.62;;;15.16;99.17
47811;BME280;33575;52.600;7.318;2023-08-06T05:12:48;100278.33;;;15.20;99.05
47811;BME280;33575;52.600;7.318;2023-08-06T05:15:18;100279.11;;;15.24;98.96
47811;BME280;33575;52.600;7.318;2023-08-06T05:17:48;100275.70;;;15.26;99.06
47811;BME280;33575;52.600;7.318;2023-08-06T05:20:20;100277.18;;;15.26;99.11
47811;BME280;33575;52.600;7.318;2023-08-06T05:22:48;100281.06;;;15.29;99.30
47811;BME280;33575;52.600;7.318;2023-08-06T05:25:20;100285.76;;;15.32;99.21
47811;BME280;33575;52.600;7.318;2023-08-06T05:27:49;100291.44;;;15.33;99.36
47811;BME280;33575;52.600;7.318;2023-08-06T05:30:19;100294.48;;;15.33;99.47
47811;BME280;33575;52.600;7.318;2023-08-06T05:32:49;100291.59;;;15.34;99.67
47811;BME280;33575;52.600;7.318;2023-08-06T05:35:19;100292.04;;;15.35;99.74
47811;BME280;33575;52.600;7.318;2023-08-06T05:37:50;100291.14;;;15.38;99.52
47811;BME280;33575;52.600;7.318;2023-08-06T05:40:20;100293.24;;;15.39;100.00
47811;BME280;33575;52.600;7.318;2023-08-06T05:42:53;100295.20;;;15.45;99.66
47811;BME280;33575;52.600;7.318;2023-08-06T05:45:21;100301.18;;;15.48;99.75
47811;BME280;33575;52.600;7.318;2023-08-06T05:47:52;100304.84;;;15.55;99.66
47811;BME280;33575;52.600;7.318;2023-08-06T05:50:22;100304.72;;;15.57;99.76
47811;BME280;33575;52.600;7.318;2023-08-06T05:52:52;100302.71;;;15.48;100.00
47811;BME280;33575;52.600;7.318;2023-08-06T05:55:22;100301.42;;;15.48;100.00
47811;BME280;33575;52.600;7.318;2023-08-06T05:57:53;100297.59;;;15.40;100.00
47811;BME280;33575;52.600;7.318;2023-08-06T06:00:24;100298.17;;;15.46;100.00
47811;BME280;33575;52.600;7.318;2023-08-06T06:02:54;100296.94;;;15.49;100.00
47811;BME280;33575;52.600;7.318;2023-08-06T06:05:24;100294.45;;;15.47;100.00
47811;BME280;33575;52.600;7.318;2023-08-06T06:07:55;100298.85;;;15.46;100.00
47811;BME280;33575;52.600;7.318;2023-08-06T06:10:25;100299.08;;;15.48;100.00
47811;BME280;33575;52.600;7.318;2023-08-06T06:12:55;100301.82;;;15.48;100.00
47811;BME280;33575;52.600;7.318;2023-08-06T06:15:25;100303.74;;;15.56;100.00
47811;BME280;33575;52.600;7.318;2023-08-06T06:17:56;100304.21;;;15.61;100.00
47811;BME280;33575;52.600;7.318;2023-08-06T06:20:26;100302.08;;;15.66;100.00
47811;BME280;33575;52.600;7.318;2023-08-06T06:22:56;100306.26;;;15.64;100.00
47811;BME280;33575;52.600;7.318;2023-08-06T06:25:27;100303.30;;;15.68;100.00
47811;BME280;33575;52.600;7.318;2023-08-06T06:27:57;100302.42;;;15.73;100.00
47811;BME280;33575;52.600;7.318;2023-08-06T06:30:27;100302.15;;;15.77;100.00
47811;BME280;33575;52.600;7.318;2023-08-06T06:32:57;100307.22;;;15.78;100.00
47811;BME280;33575;52.600;7.318;2023-08-06T06:35:28;100313.43;;;15.83;100.00
47811;BME280;33575;52.600;7.318;2023-08-06T06:37:58;100318.00;;;15.83;100.00
47811;BME280;33575;52.600;7.318;2023-08-06T06:40:28;100316.17;;;15.81;100.00
47811;BME280;33575;52.600;7.318;2023-08-06T06:42:58;100317.06;;;15.85;99.93
47811;BME280;33575;52.600;7.318;2023-08-06T06:45:28;100313.50;;;15.88;99.96
47811;BME280;33575;52.600;7.318;2023-08-06T06:47:58;100317.31;;;15.90;100.00
47811;BME280;33575;52.600;7.318;2023-08-06T06:50:29;100317.82;;;15.93;99.88
47811;BME280;33575;52.600;7.318;2023-08-06T06:52:59;100317.08;;;16.00;99.68
47811;BME280;33575;52.600;7.318;2023-08-06T06:55:30;100317.25;;;15.99;99.95
47811;BME280;33575;52.600;7.318;2023-08-06T06:58:00;100316.44;;;16.04;99.78
47811;BME280;33575;52.600;7.318;2023-08-06T07:00:30;100315.63;;;16.05;99.61
47811;BME280;33575;52.600;7.318;2023-08-06T07:03:01;100318.51;;;16.07;99.69
47811;BME280;33575;52.600;7.318;2023-08-06T07:05:31;100318.16;;;16.11;99.62
47811;BME280;33575;52.600;7.318;2023-08-06T07:08:02;100319.81;;;16.15;99.73
47811;BME280;33575;52.600;7.318;2023-08-06T07:10:32;100319.99;;;16.07;100.00
47811;BME280;33575;52.600;7.318;2023-08-06T07:13:03;100314.64;;;16.13;99.80
47811;BME280;33575;52.600;7.318;2023-08-06T07:15:33;100314.12;;;16.16;99.71
47811;BME280;33575;52.600;7.318;2023-08-06T07:18:04;100315.77;;;16.23;99.61
47811;BME280;33575;52.600;7.318;2023-08-06T07:20:34;100319.78;;;16.29;99.67
47811;BME280;33575;52.600;7.318;2023-08-06T07:23:06;100320.66;;;16.35;99.64
47811;BME280;33575;52.600;7.318;2023-08-06T07:25:35;100320.17;;;16.41;99.45
47811;BME280;33575;52.600;7.318;2023-08-06T07:28:05;100322.28;;;16.38;99.89
47811;BME280;33575;52.600;7.318;2023-08-06T07:30:38;100327.89;;;16.35;99.52
47811;BME280;33575;52.600;7.318;2023-08-06T07:33:06;100327.58;;;16.32;100.00
47811;BME280;33575;52.600;7.318;2023-08-06T07:35:37;100332.04;;;16.38;100.00
47811;BME280;33575;52.600;7.318;2023-08-06T07:38:07;100329.06;;;16.36;100.00
47811;BME280;33575;52.600;7.318;2023-08-06T07:40:37;100328.50;;;16.43;100.00
47811;BME280;33575;52.600;7.318;2023-08-06T07:43:07;100331.96;;;16.52;100.00
47811;BME280;33575;52.600;7.318;2023-08-06T07:45:37;100331.93;;;16.55;99.96
47811;BME280;33575;52.600;7.318;2023-08-06T07:48:08;100333.82;;;16.59;99.76
47811;BME280;33575;52.600;7.318;2023-08-06T07:50:38;100333.07;;;16.56;100.00
47811;BME280;33575;52.600;7.318;2023-08-06T07:53:08;100332.92;;;16.53;99.53
47811;BME280;33575;52.600;7.318;2023-08-06T07:55:39;100328.48;;;16.50;99.70
47811;BME280;33575;52.600;7.318;2023-08-06T07:58:09;100325.49;;;16.47;99.69
47811;BME280;33575;52.600;7.318;2023-08-06T08:00:40;100326.26;;;16.51;99.63
47811;BME280;33575;52.600;7.318;2023-08-06T08:03:10;100323.97;;;16.54;99.78
47811;BME280;33575;52.600;7.318;2023-08-06T08:05:40;100323.32;;;16.49;99.94
47811;BME280;33575;52.600;7.318;2023-08-06T08:08:10;100326.67;;;16.55;100.00
47811;BME280;33575;52.600;7.318;2023-08-06T08:10:41;100322.98;;;16.62;99.97
47811;BME280;33575;52.600;7.318;2023-08-06T08:13:10;100319.75;;;16.75;99.67
47811;BME280;33575;52.600;7.318;2023-08-06T08:15:41;100321.34;;;16.76;99.99
47811;BME280;33575;52.600;7.318;2023-08-06T08:18:11;100321.05;;;16.76;99.55
47811;BME280;33575;52.600;7.318;2023-08-06T08:20:42;100321.41;;;16.73;99.00
47811;BME280;33575;52.600;7.318;2023-08-06T08:23:12;100321.64;;;16.77;98.54
47811;BME280;33575;52.600;7.318;2023-08-06T08:25:43;100322.83;;;16.52;100.00
47811;BME280;33575;52.600;7.318;2023-08-06T08:28:13;100323.82;;;16.51;100.00
47811;BME280;33575;52.600;7.318;2023-08-06T08:30:44;100320.57;;;16.57;100.00
47811;BME280;33575;52.600;7.318;2023-08-06T08:33:14;100320.44;;;16.56;100.00
47811;BME280;33575;52.600;7.318;2023-08-06T08:35:46;100318.06;;;16.59;100.00
47811;BME280;33575;52.600;7.318;2023-08-06T08:38:15;100321.88;;;16.48;100.00
47811;BME280;33575;52.600;7.318;2023-08-06T08:40:46;100323.77;;;16.55;100.00
47811;BME280;33575;52.600;7.318;2023-08-06T08:43:16;100326.97;;;16.56;100.00
47811;BME280;33575;52.600;7.318;2023-08-06T08:45:49;100327.60;;;16.59;100.00
47811;BME280;33575;52.600;7.318;2023-08-06T08:48:17;100326.34;;;16.70;100.00
47811;BME280;33575;52.600;7.318;2023-08-06T08:50:48;100325.74;;;16.71;100.00
47811;BME280;33575;52.600;7.318;2023-08-06T08:53:18;100326.94;;;16.65;100.00
47811;BME280;33575;52.600;7.318;2023-08-06T08:55:48;100324.32;;;16.68;99.88
47811;BME280;33575;52.600;7.318;2023-08-06T08:58:17;100325.50;;;16.72;100.00
47811;BME280;33575;52.600;7.318;2023-08-06T09:00:48;100329.44;;;16.71;99.56
47811;BME280;33575;52.600;7.318;2023-08-06T09:03:18;100327.72;;;16.82;99.61
47811;BME280;33575;52.600;7.318;2023-08-06T09:05:53;100328.63;;;16.90;99.48
47811;BME280;33575;52.600;7.318;2023-08-06T09:08:23;100325.19;;;17.04;99.47
47811;BME280;33575;52.600;7.318;2023-08-06T09:10:50;100321.38;;;17.15;99.63
47811;BME280;33575;52.600;7.318;2023-08-06T09:13:20;100321.96;;;17.25;99.08
47811;BME280;33575;52.600;7.318;2023-08-06T09:15:50;100320.11;;;17.28;96.88
47811;BME280;33575;52.600;7.318;2023-08-06T09:18:25;100323.17;;;17.36;97.46
47811;BME280;33575;52.600;7.318;2023-08-06T09:20:51;100323.11;;;17.46;97.63
47811;BME280;33575;52.600;7.318;2023-08-06T09:23:27;100323.58;;;17.57;97.84
47811;BME280;33575;52.600;7.318;2023-08-06T09:25:52;100322.40;;;17.63;97.56
47811;BME280;33575;52.600;7.318;2023-08-06T09:28:22;100321.19;;;17.62;97.22
47811;BME280;33575;52.600;7.318;2023-08-06T09:30:52;100321.13;;;17.71;97.01
47811;BME280;33575;52.600;7.318;2023-08-06T09:33:23;100328.50;;;17.84;97.87
47811;BME280;33575;52.600;7.318;2023-08-06T09:35:53;100330.73;;;17.91;97.42
47811;BME280;33575;52.600;7.318;2023-08-06T09:38:25;100329.67;;;17.90;97.39
47811;BME280;33575;52.600;7.318;2023-08-06T09:40:54;100328.99;;;17.88;96.83
47811;BME280;33575;52.600;7.318;2023-08-06T09:43:25;100329.68;;;18.01;97.59
47811;BME280;33575;52.600;7.318;2023-08-06T09:45:55;100328.07;;;18.11;96.92
47811;BME280;33575;52.600;7.318;2023-08-06T09:48:25;100329.02;;;18.15;97.57
47811;BME280;33575;52.600;7.318;2023-08-06T09:50:56;100329.40;;;18.15;97.27
47811;BME280;33575;52.600;7.318;2023-08-06T09:53:26;100326.08;;;18.20;96.81
47811;BME280;33575;52.600;7.318;2023-08-06T09:55:56;100331.12;;;18.17;95.60
47811;BME280;33575;52.600;7.318;2023-08-06T09:58:27;100334.85;;;18.16;95.01
47811;BME280;33575;52.600;7.318;2023-08-06T10:00:57;100335.81;;;18.24;96.46
47811;BME280;33575;52.600;7.318;2023-08-06T10:03:29;100338.23;;;18.26;95.14
47811;BME280;33575;52.600;7.318;2023-08-06T10:05:58;100339.61;;;18.35;95.58
47811;BME280;33575;52.600;7.318;2023-08-06T10:08:29;100340.22;;;18.32;95.53
47811;BME280;33575;52.600;7.318;2023-08-06T10:10:59;100336.51;;;18.35;93.37
47811;BME280;33575;52.600;7.318;2023-08-06T10:13:30;100336.96;;;18.43;92.97
47811;BME280;33575;52.600;7.318;2023-08-06T10:16:00;100337.58;;;18.52;93.28
47811;BME280;33575;52.600;7.318;2023-08-06T10:18:31;100333.73;;;18.68;94.06
47811;BME280;33575;52.600;7.318;2023-08-06T10:21:01;100334.00;;;18.83;93.20
47811;BME280;33575;52.600;7.318;2023-08-06T10:23:33;100336.23;;;18.81;91.79
47811;BME280;33575;52.600;7.318;2023-08-06T10:26:01;100334.34;;;18.93;93.69
47811;BME280;33575;52.600;7.318;2023-08-06T10:28:36;100335.88;;;18.99;93.83
47811;BME280;33575;52.600;7.318;2023-08-06T10:31:03;100331.94;;;19.03;93.08
47811;BME280;33575;52.600;7.318;2023-08-06T10:33:41;100332.03;;;19.01;92.28
47811;BME280;33575;52.600;7.318;2023-08-06T10:36:03;100333.11;;;19.04;93.62
47811;BME280;33575;52.600;7.318;2023-08-06T10:38:34;100333.48;;;19.13;93.18
47811;BME280;33575;52.600;7.318;2023-08-06T10:41:04;100326.29;;;19.21;92.81
47811;BME280;33575;52.600;7.318;2023-08-06T10:43:35;100324.96;;;19.29;92.37
47811;BME280;33575;52.600;7.318;2023-08-06T10:46:09;100320.86;;;19.34;91.80
47811;BME280;33575;52.600;7.318;2023-08-06T10:48:37;100319.37;;;19.28;90.38
47811;BME280;33575;52.600;7.318;2023-08-06T10:51:07;100314.38;;;19.18;89.92
47811;BME280;33575;52.600;7.318;2023-08-06T10:53:36;100316.78;;;19.12;89.11
47811;BME280;33575;52.600;7.318;2023-08-06T10:56:12;100313.48;;;18.96;90.24
47811;BME280;33575;52.600;7.318;2023-08-06T10:58:37;100310.72;;;18.97;91.09
47811;BME280;33575;52.600;7.318;2023-08-06T11:01:07;100308.85;;;19.04;91.40
47811;BME280;33575;52.600;7.318;2023-08-06T11:03:38;100314.62;;;19.03;91.66
47811;BME280;33575;52.600;7.318;2023-08-06T11:06:08;100318.05;;;18.97;91.73
47811;BME280;33575;52.600;7.318;2023-08-06T11:08:46;100317.42;;;18.90;90.87
47811;BME280;33575;52.600;7.318;2023-08-06T11:11:09;100311.83;;;18.99;91.33
47811;BME280;33575;52.600;7.318;2023-08-06T11:13:38;100311.27;;;19.02;92.05
47811;BME280;33575;52.600;7.318;2023-08-06T11:16:09;100309.71;;;19.00;91.31
47811;BME280;33575;52.600;7.318;2023-08-06T11:18:40;100306.68;;;19.04;90.11
47811;BME280;33575;52.600;7.318;2023-08-06T11:21:10;100304.47;;;19.08;92.17
47811;BME280;33575;52.600;7.318;2023-08-06T11:23:40;100308.52;;;19.20;91.90
47811;BME280;33575;52.600;7.318;2023-08-06T11:26:10;100309.53;;;19.17;92.96
47811;BME280;33575;52.600;7.318;2023-08-06T11:28:41;100307.22;;;19.00;91.24
47811;BME280;33575;52.600;7.318;2023-08-06T11:31:18;100309.84;;;18.97;92.30
47811;BME280;33575;52.600;7.318;2023-08-06T11:33:42;100306.31;;;18.94;92.44
47811;BME280;33575;52.600;7.318;2023-08-06T11:36:12;100309.24;;;18.96;92.85
47811;BME280;33575;52.600;7.318;2023-08-06T11:38:42;100310.48;;;18.97;93.17
47811;BME280;33575;52.600;7.318;2023-08-06T11:41:13;100311.55;;;19.00;92.97
47811;BME280;33575;52.600;7.318;2023-08-06T11:43:45;100310.04;;;18.97;93.08
47811;BME280;33575;52.600;7.318;2023-08-06T11:46:14;100312.70;;;19.00;93.28
47811;BME280;33575;52.600;7.318;2023-08-06T11:48:50;100312.19;;;19.03;93.58
47811;BME280;33575;52.600;7.318;2023-08-06T11:51:14;100308.06;;;19.09;92.63
47811;BME280;33575;52.600;7.318;2023-08-06T11:53:48;100307.91;;;19.10;92.37
47811;BME280;33575;52.600;7.318;2023-08-06T11:56:15;100306.56;;;19.17;93.11
47811;BME280;33575;52.600;7.318;2023-08-06T11:58:45;100303.46;;;19.10;92.14
47811;BME280;33575;52.600;7.318;2023-08-06T12:01:16;100300.85;;;19.02;92.96
47811;BME280;33575;52.600;7.318;2023-08-06T12:03:46;100303.85;;;18.89;92.73
47811;BME280;33575;52.600;7.318;2023-08-06T12:06:16;100300.93;;;19.01;91.62
47811;BME280;33575;52.600;7.318;2023-08-06T12:08:47;100300.12;;;19.02;91.63
47811;BME280;33575;52.600;7.318;2023-08-06T12:11:17;100295.02;;;19.05;92.34
47811;BME280;33575;52.600;7.318;2023-08-06T12:13:50;100295.88;;;19.05;91.82
47811;BME280;33575;52.600;7.318;2023-08-06T12:16:18;100292.14;;;19.01;92.54
47811;BME280;33575;52.600;7.318;2023-08-06T12:18:48;100292.23;;;18.94;91.37
47811;BME280;33575;52.600;7.318;2023-08-06T12:21:18;100292.42;;;18.88;90.83
47811;BME280;33575;52.600;7.318;2023-08-06T12:23:49;100291.25;;;18.87;90.95
47811;BME280;33575;52.600;7.318;2023-08-06T12:26:19;100293.02;;;18.88;90.27
47811;BME280;33575;52.600;7.318;2023-08-06T12:28:49;100292.25;;;18.74;88.13
47811;BME280;33575;52.600;7.318;2023-08-06T12:31:19;100290.76;;;18.78;89.48
47811;BME280;33575;52.600;7.318;2023-08-06T12:33:50;100290.03;;;18.88;91.62
47811;BME280;33575;52.600;7.318;2023-08-06T12:36:20;100288.93;;;18.91;87.34
47811;BME280;33575;52.600;7.318;2023-08-06T12:38:50;100287.72;;;18.93;87.34
47811;BME280;33575;52.600;7.318;2023-08-06T12:41:20;100288.34;;;19.09;88.18
47811;BME280;33575;52.600;7.318;2023-08-06T12:43:51;100288.47;;;19.18;88.37
47811;BME280;33575;52.600;7.318;2023-08-06T12:46:21;100284.71;;;19.33;88.80
47811;BME280;33575;52.600;7.318;2023-08-06T12:48:51;100282.08;;;19.44;89.00
47811;BME280;33575;52.600;7.318;2023-08-06T12:51:21;100280.36;;;19.54;89.32
47811;BME280;33575;52.600;7.318;2023-08-06T12:53:52;100280.83;;;19.58;88.10
47811;BME280;33575;52.600;7.318;2023-08-06T12:56:22;100275.05;;;19.70;88.14
47811;BME280;33575;52.600;7.318;2023-08-06T12:58:52;100277.79;;;19.65;88.26
47811;BME280;33575;52.600;7.318;2023-08-06T13:01:22;100280.49;;;19.65;86.91
47811;BME280;33575;52.600;7.318;2023-08-06T13:03:59;100275.90;;;19.83;87.20